createdAt,value
2017-08-25T00:01:03.959Z,2.70
2017-08-25T00:03:31.408Z,2.00
2017-08-25T00:05:58.921Z,2.03
2017-08-25T00:08:26.392Z,2.17
2017-08-25T00:10:53.853Z,2.27
2017-08-25T00:13:23.156Z,2.10
2017-08-25T00:15:50.624Z,3.10
2017-08-25T00:18:18.096Z,2.60
2017-08-25T00:20:45.644Z,2.37
2017-08-25T00:23:13.125Z,2.47
2017-08-25T00:25:40.657Z,2.37
2017-08-25T00:28:08.142Z,2.17
2017-08-25T00:30:35.700Z,2.37
2017-08-25T00:33:03.192Z,2.63
2017-08-25T00:35:30.640Z,2.47
2017-08-25T00:37:58.097Z,2.20
2017-08-25T00:40:25.577Z,1.83
2017-08-25T00:42:53.037Z,2.40
2017-08-25T00:45:20.524Z,2.67
2017-08-25T00:47:47.981Z,2.27
2017-08-25T00:50:15.462Z,2.90
2017-08-25T00:52:42.925Z,1.77
2017-08-25T00:55:10.408Z,2.70
2017-08-25T00:57:37.876Z,2.67
2017-08-25T01:00:05.360Z,2.20
2017-08-25T01:02:32.836Z,2.70
2017-08-25T01:05:00.293Z,2.53
2017-08-25T01:07:27.824Z,2.40
2017-08-25T01:09:55.271Z,2.13
2017-08-25T01:12:22.757Z,2.77
2017-08-25T01:14:50.336Z,2.53
2017-08-25T01:17:17.821Z,3.57
2017-08-25T01:19:45.289Z,2.70
2017-08-25T01:22:12.770Z,2.90
2017-08-25T01:24:40.249Z,2.23
2017-08-25T01:27:07.996Z,2.90
2017-08-25T01:29:35.471Z,3.33
2017-08-25T01:32:03.009Z,2.93
2017-08-25T01:34:30.464Z,2.80
2017-08-25T01:36:58.009Z,3.10
2017-08-25T01:39:25.777Z,2.53
2017-08-25T01:41:53.241Z,2.73
2017-08-25T01:44:20.724Z,2.93
2017-08-25T01:46:48.248Z,2.90
2017-08-25T01:49:15.809Z,2.30
2017-08-25T01:51:43.264Z,2.97
2017-08-25T01:54:10.743Z,3.27
2017-08-25T01:56:38.188Z,3.00
2017-08-25T01:59:05.737Z,2.97
2017-08-25T02:01:33.296Z,2.53
2017-08-25T02:04:01.065Z,2.33
2017-08-25T02:06:28.625Z,2.13
2017-08-25T02:08:56.085Z,2.37
2017-08-25T02:11:23.658Z,2.67
2017-08-25T02:13:51.120Z,3.27
2017-08-25T02:16:18.604Z,2.73
2017-08-25T02:18:46.060Z,3.17
2017-08-25T02:21:13.531Z,2.70
2017-08-25T02:23:41.009Z,3.03
2017-08-25T02:26:08.570Z,3.37
2017-08-25T02:28:36.141Z,2.67
2017-08-25T02:31:03.597Z,2.70
2017-08-25T02:33:31.080Z,2.50
2017-08-25T02:35:58.604Z,2.97
2017-08-25T02:38:26.101Z,2.70
2017-08-25T02:40:53.566Z,2.90
2017-08-25T02:43:21.100Z,2.50
2017-08-25T02:45:48.636Z,2.90
2017-08-25T02:48:16.191Z,3.07
2017-08-25T02:50:43.765Z,2.77
2017-08-25T02:53:11.311Z,2.73
2017-08-25T02:55:38.824Z,3.40
2017-08-25T02:58:06.296Z,3.23
2017-08-25T03:00:33.749Z,3.00
2017-08-25T03:03:01.249Z,2.90
2017-08-25T03:05:28.713Z,2.67
2017-08-25T03:07:56.173Z,2.73
2017-08-25T03:10:23.669Z,2.33
2017-08-25T03:12:51.129Z,2.67
2017-08-25T03:15:18.632Z,2.30
2017-08-25T03:17:46.181Z,2.63
2017-08-25T03:20:13.661Z,2.60
2017-08-25T03:22:41.196Z,3.00
2017-08-25T03:25:08.693Z,2.80
2017-08-25T03:27:36.150Z,3.10
2017-08-25T03:30:03.633Z,2.60
2017-08-25T03:32:31.278Z,2.83
2017-08-25T03:34:58.798Z,2.47
2017-08-25T03:37:26.257Z,2.70
2017-08-25T03:39:53.801Z,2.83
2017-08-25T03:42:21.373Z,2.50
2017-08-25T03:44:48.928Z,2.83
2017-08-25T03:47:16.504Z,2.20
2017-08-25T03:49:43.959Z,2.20
2017-08-25T03:52:11.453Z,2.57
2017-08-25T03:54:38.953Z,2.70
2017-08-25T03:57:06.445Z,2.67
2017-08-25T03:59:33.968Z,2.40
2017-08-25T04:02:01.461Z,2.73
2017-08-25T04:04:28.926Z,2.70
2017-08-25T04:06:56.401Z,3.47
2017-08-25T04:09:23.893Z,2.90
2017-08-25T04:11:51.349Z,2.53
2017-08-25T04:14:18.820Z,2.43
2017-08-25T04:16:46.286Z,2.53
2017-08-25T04:19:13.819Z,3.70
2017-08-25T04:21:41.400Z,2.63
2017-08-25T04:24:08.897Z,3.07
2017-08-25T04:26:36.397Z,3.00
2017-08-25T04:29:03.860Z,2.57
2017-08-25T04:31:31.414Z,3.00
2017-08-25T04:33:58.876Z,2.80
2017-08-25T04:36:26.357Z,3.30
2017-08-25T04:38:53.818Z,2.27
2017-08-25T04:41:21.297Z,2.97
2017-08-25T04:43:48.756Z,2.53
2017-08-25T04:46:16.249Z,2.87
2017-08-25T04:48:43.717Z,2.93
2017-08-25T04:51:11.208Z,3.10
2017-08-25T04:53:38.660Z,3.50
2017-08-25T04:56:06.122Z,2.80
2017-08-25T04:58:34.690Z,3.23
2017-08-25T05:01:02.329Z,3.03
2017-08-25T05:03:29.806Z,3.80
2017-08-25T05:05:57.269Z,3.57
2017-08-25T05:08:24.749Z,3.30
2017-08-25T05:10:52.253Z,3.83
2017-08-25T05:13:19.735Z,3.23
2017-08-25T05:15:47.268Z,4.07
2017-08-25T05:18:14.733Z,3.07
2017-08-25T05:20:42.260Z,2.50
2017-08-25T05:23:09.725Z,3.33
2017-08-25T05:25:37.297Z,2.63
2017-08-25T05:28:04.952Z,2.90
2017-08-25T05:30:32.517Z,2.77
2017-08-25T05:33:02.716Z,3.07
2017-08-25T05:35:30.345Z,2.80
2017-08-25T05:37:57.809Z,2.77
2017-08-25T05:40:25.555Z,2.43
2017-08-25T05:42:53.049Z,3.07
2017-08-25T05:45:20.528Z,3.20
2017-08-25T05:47:47.989Z,3.23
2017-08-25T05:50:15.447Z,3.40
2017-08-25T05:52:42.979Z,3.13
2017-08-25T05:55:10.461Z,2.63
2017-08-25T05:57:37.968Z,2.73
2017-08-25T06:00:05.429Z,2.73
2017-08-25T06:02:32.954Z,2.90
2017-08-25T06:05:00.433Z,3.60
2017-08-25T06:07:27.915Z,3.03
2017-08-25T06:09:55.405Z,3.10
2017-08-25T06:12:22.890Z,3.10
2017-08-25T06:14:50.425Z,3.20
2017-08-25T06:17:17.887Z,3.00
2017-08-25T06:19:45.367Z,3.63
2017-08-25T06:22:12.830Z,2.73
2017-08-25T06:24:40.366Z,3.60
2017-08-25T06:27:07.830Z,3.13
2017-08-25T06:29:35.317Z,2.90
2017-08-25T06:32:02.821Z,4.27
2017-08-25T06:34:30.387Z,4.23
2017-08-25T06:36:57.946Z,3.30
2017-08-25T06:39:25.440Z,3.70
2017-08-25T06:41:52.901Z,3.37
2017-08-25T06:44:20.424Z,23.80
2017-08-25T06:46:47.942Z,3.27
2017-08-25T06:49:15.392Z,3.20
2017-08-25T06:51:42.874Z,4.33
2017-08-25T06:54:10.345Z,3.10
2017-08-25T06:56:37.825Z,3.37
2017-08-25T06:59:05.280Z,3.20
2017-08-25T07:01:32.806Z,3.50
2017-08-25T07:04:00.373Z,3.27
2017-08-25T07:06:27.852Z,3.27
2017-08-25T07:08:56.075Z,3.27
2017-08-25T07:11:23.657Z,3.57
2017-08-25T07:13:51.108Z,4.20
2017-08-25T07:16:18.681Z,3.93
2017-08-25T07:18:46.137Z,3.13
2017-08-25T07:21:13.594Z,3.70
2017-08-25T07:23:41.077Z,3.90
2017-08-25T07:26:08.596Z,3.53
2017-08-25T07:28:36.084Z,2.50
2017-08-25T07:31:03.617Z,3.47
2017-08-25T07:33:31.102Z,3.40
2017-08-25T07:35:58.575Z,3.20
2017-08-25T07:38:26.083Z,3.43
2017-08-25T07:40:53.645Z,3.63
2017-08-25T07:43:21.113Z,4.03
2017-08-25T07:45:48.604Z,2.80
2017-08-25T07:48:16.065Z,4.13
2017-08-25T07:50:43.550Z,3.53
2017-08-25T07:53:11.047Z,3.37
2017-08-25T07:55:38.584Z,3.70
2017-08-25T07:58:06.056Z,4.10
2017-08-25T08:00:33.602Z,3.80
2017-08-25T08:03:01.158Z,2.80
2017-08-25T08:05:28.646Z,3.80
2017-08-25T08:07:56.103Z,4.00
2017-08-25T08:10:23.562Z,4.57
2017-08-25T08:12:51.060Z,3.37
2017-08-25T08:15:18.524Z,3.87
2017-08-25T08:17:46.025Z,4.30
2017-08-25T08:20:13.488Z,4.43
2017-08-25T08:22:41.026Z,3.70
2017-08-25T08:25:08.573Z,4.87
2017-08-25T08:27:36.064Z,4.63
2017-08-25T08:30:03.526Z,4.27
2017-08-25T08:32:31.058Z,5.07
2017-08-25T08:34:58.551Z,4.60
2017-08-25T08:37:26.033Z,4.87
2017-08-25T08:39:53.521Z,4.27
2017-08-25T08:42:21.052Z,4.30
2017-08-25T08:44:48.542Z,5.80
2017-08-25T08:47:16.095Z,5.43
2017-08-25T08:49:43.656Z,5.17
2017-08-25T08:52:11.213Z,4.63
2017-08-25T08:54:38.681Z,4.83
2017-08-25T08:57:06.223Z,4.63
2017-08-25T08:59:33.745Z,4.80
2017-08-25T09:02:01.249Z,4.93
2017-08-25T09:04:28.737Z,5.47
2017-08-25T09:06:56.260Z,4.80
2017-08-25T09:09:23.730Z,4.90
2017-08-25T09:11:51.256Z,5.20
2017-08-25T09:14:18.744Z,3.70
2017-08-25T09:16:46.241Z,4.63
2017-08-25T09:19:13.769Z,4.07
2017-08-25T09:21:41.322Z,3.83
2017-08-25T09:24:08.862Z,4.10
2017-08-25T09:26:36.325Z,4.57
2017-08-25T09:29:03.893Z,4.33
2017-08-25T09:31:31.643Z,3.23
2017-08-25T09:33:59.208Z,3.60
2017-08-25T09:36:26.765Z,4.50
2017-08-25T09:38:54.242Z,4.33
2017-08-25T09:41:21.705Z,3.37
2017-08-25T09:43:49.684Z,3.60
2017-08-25T09:46:17.193Z,3.57
2017-08-25T09:48:44.681Z,4.70
2017-08-25T09:51:12.141Z,3.20
2017-08-25T09:53:39.617Z,3.30
2017-08-25T09:56:07.082Z,3.80
2017-08-25T09:58:34.561Z,3.00
2017-08-25T10:01:02.012Z,3.60
2017-08-25T10:03:29.496Z,3.57
2017-08-25T10:05:57.068Z,3.37
2017-08-25T10:08:24.631Z,3.40
2017-08-25T10:10:52.317Z,2.80
2017-08-25T10:13:19.834Z,3.00
2017-08-25T10:15:47.293Z,3.77
2017-08-25T10:18:14.856Z,3.50
2017-08-25T10:20:42.333Z,2.50
2017-08-25T10:23:09.869Z,2.53
2017-08-25T10:25:37.352Z,3.53
2017-08-25T10:28:04.804Z,3.03
2017-08-25T10:30:32.338Z,3.07
2017-08-25T10:33:11.967Z,3.47
2017-08-25T10:38:43.677Z,3.27
2017-08-25T10:41:22.965Z,2.10
2017-08-25T10:44:02.314Z,2.93
2017-08-25T10:46:29.787Z,3.30
2017-08-25T10:48:57.241Z,3.13
2017-08-25T10:51:24.722Z,3.63
2017-08-25T10:53:52.233Z,2.97
2017-08-25T10:56:19.713Z,3.47
2017-08-25T10:58:47.263Z,3.10
2017-08-25T11:01:14.782Z,2.57
2017-08-25T11:03:42.253Z,2.80
2017-08-25T11:06:09.817Z,3.10
2017-08-25T11:08:37.369Z,3.60
2017-08-25T11:11:04.836Z,3.10
2017-08-25T11:13:32.427Z,3.20
2017-08-25T11:15:59.902Z,2.43
2017-08-25T11:18:27.390Z,3.17
2017-08-25T11:20:54.848Z,3.63
2017-08-25T11:23:22.325Z,3.87
2017-08-25T11:25:49.810Z,3.40
2017-08-25T11:28:17.300Z,3.50
2017-08-25T11:30:45.800Z,3.27
2017-08-25T11:33:13.277Z,3.20
2017-08-25T11:35:40.760Z,3.47
2017-08-25T11:38:08.217Z,3.67
2017-08-25T11:40:35.697Z,2.80
2017-08-25T11:43:08.290Z,3.30
2017-08-25T11:45:35.924Z,2.80
2017-08-25T11:48:03.409Z,3.53
2017-08-25T11:50:30.888Z,2.80
2017-08-25T11:52:58.350Z,3.37
2017-08-25T11:55:25.842Z,3.00
2017-08-25T11:57:53.875Z,3.00
2017-08-25T12:00:21.359Z,3.90
2017-08-25T12:02:48.836Z,3.17
2017-08-25T12:05:16.376Z,4.20
2017-08-25T12:07:43.862Z,3.30
2017-08-25T12:10:11.356Z,3.77
2017-08-25T12:12:38.915Z,3.50
2017-08-25T12:15:06.471Z,3.57
2017-08-25T12:17:33.982Z,3.17
2017-08-25T12:20:01.502Z,3.53
2017-08-25T12:22:29.008Z,2.40
2017-08-25T12:24:56.518Z,3.10
2017-08-25T12:27:23.996Z,3.20
2017-08-25T12:29:51.520Z,3.17
2017-08-25T12:32:18.992Z,3.90
2017-08-25T12:34:46.536Z,3.10
2017-08-25T12:37:14.093Z,3.47
2017-08-25T12:39:41.585Z,4.20
2017-08-25T12:42:09.044Z,4.20
2017-08-25T12:44:36.515Z,3.70
2017-08-25T12:47:03.963Z,3.00
2017-08-25T12:49:31.489Z,4.43
2017-08-25T12:51:59.037Z,3.93
2017-08-25T12:54:26.525Z,3.60
2017-08-25T12:56:53.980Z,3.83
2017-08-25T12:59:21.445Z,4.03
2017-08-25T13:01:48.952Z,3.67
2017-08-25T13:04:16.400Z,3.00
2017-08-25T13:06:43.883Z,3.67
2017-08-25T13:09:11.349Z,3.40
2017-08-25T13:11:38.825Z,3.50
2017-08-25T13:14:06.352Z,4.40
2017-08-25T13:16:33.841Z,5.43
2017-08-25T13:19:01.365Z,3.30
2017-08-25T13:21:28.939Z,3.83
2017-08-25T13:23:56.492Z,3.10
2017-08-25T13:26:24.094Z,4.27
2017-08-25T13:28:51.621Z,3.40
2017-08-25T13:31:19.086Z,4.10
2017-08-25T13:33:46.571Z,3.07
2017-08-25T13:36:14.082Z,3.90
2017-08-25T13:38:41.582Z,3.80
2017-08-25T13:41:09.094Z,3.90
2017-08-25T13:43:36.681Z,3.77
2017-08-25T13:46:04.231Z,4.03
2017-08-25T13:48:31.817Z,4.90
2017-08-25T13:50:59.285Z,3.97
2017-08-25T13:53:26.755Z,3.63
2017-08-25T13:55:54.234Z,4.37
2017-08-25T13:58:21.729Z,4.60
2017-08-25T14:00:49.213Z,4.00
2017-08-25T14:03:16.716Z,3.60
2017-08-25T14:05:44.268Z,4.10
2017-08-25T14:08:11.822Z,3.73
2017-08-25T14:10:39.402Z,3.47
2017-08-25T14:13:06.863Z,4.67
2017-08-25T14:15:34.397Z,3.53
2017-08-25T14:18:01.962Z,3.90
2017-08-25T14:20:29.451Z,4.07
2017-08-25T14:22:56.963Z,4.10
2017-08-25T14:25:24.435Z,4.63
2017-08-25T14:27:51.897Z,3.40
2017-08-25T14:30:19.439Z,4.20
2017-08-25T14:32:46.891Z,3.77
2017-08-25T14:35:14.359Z,4.33
2017-08-25T14:37:41.914Z,3.83
2017-08-25T14:40:09.356Z,4.13
2017-08-25T14:42:36.948Z,3.80
2017-08-25T14:45:04.765Z,3.60
2017-08-25T14:47:32.313Z,4.07
2017-08-25T14:49:59.994Z,4.27
2017-08-25T14:52:27.586Z,3.73
2017-08-25T14:54:55.158Z,4.73
2017-08-25T14:57:22.645Z,4.37
2017-08-25T14:59:50.165Z,3.40
2017-08-25T15:02:17.655Z,3.80
2017-08-25T15:04:45.175Z,3.00
2017-08-25T15:07:12.649Z,3.67
2017-08-25T15:09:40.132Z,3.83
2017-08-25T15:12:07.594Z,4.10
2017-08-25T15:14:35.094Z,3.63
2017-08-25T15:17:02.547Z,4.63
2017-08-25T15:19:30.134Z,4.07
2017-08-25T15:21:57.596Z,4.10
2017-08-25T15:24:25.089Z,3.90
2017-08-25T15:26:52.579Z,4.40
2017-08-25T15:29:20.057Z,4.50
2017-08-25T15:31:47.663Z,4.20
2017-08-25T15:34:15.132Z,4.27
2017-08-25T15:36:42.595Z,4.30
2017-08-25T15:39:10.177Z,3.87
2017-08-25T15:41:37.670Z,5.17
2017-08-25T15:44:05.153Z,3.33
2017-08-25T15:46:32.633Z,4.80
2017-08-25T15:49:00.101Z,4.00
2017-08-25T15:51:27.625Z,3.70
2017-08-25T15:53:55.092Z,4.03
2017-08-25T15:56:22.568Z,4.80
2017-08-25T15:58:50.127Z,4.10
2017-08-25T16:01:17.628Z,5.43
2017-08-25T16:03:45.145Z,4.90
2017-08-25T16:06:12.616Z,6.60
2017-08-25T16:08:40.095Z,6.43
2017-08-25T16:11:07.576Z,7.77
2017-08-25T16:13:35.028Z,8.03
2017-08-25T16:16:02.532Z,8.20
2017-08-25T16:18:29.993Z,6.00
2017-08-25T16:20:57.468Z,5.43
2017-08-25T16:23:24.998Z,4.40
2017-08-25T16:25:52.477Z,4.60
2017-08-25T16:28:20.015Z,5.30
2017-08-25T16:30:47.505Z,4.80
2017-08-25T16:33:15.037Z,5.40
2017-08-25T16:35:42.586Z,5.50
2017-08-25T16:38:10.157Z,5.40
2017-08-25T16:40:37.674Z,4.07
2017-08-25T16:43:05.150Z,4.40
2017-08-25T16:45:32.629Z,3.07
2017-08-25T16:48:00.109Z,3.90
2017-08-25T16:50:27.641Z,3.93
2017-08-25T16:52:55.205Z,3.90
2017-08-25T16:55:22.651Z,3.53
2017-08-25T16:57:50.137Z,3.83
2017-08-25T17:00:17.622Z,3.50
2017-08-25T17:02:45.133Z,4.00
2017-08-25T17:05:12.613Z,3.70
2017-08-25T17:07:40.135Z,3.90
2017-08-25T17:10:07.601Z,4.03
2017-08-25T17:12:35.162Z,3.10
2017-08-25T17:15:02.616Z,4.90
2017-08-25T17:17:30.100Z,3.70
2017-08-25T17:19:57.569Z,4.60
2017-08-25T17:22:25.040Z,4.50
2017-08-25T17:24:52.498Z,3.40
2017-08-25T17:27:19.977Z,3.40
2017-08-25T17:29:47.458Z,4.70
2017-08-25T17:32:15.004Z,4.17
2017-08-25T17:34:42.460Z,3.50
2017-08-25T17:37:10.022Z,3.77
2017-08-25T17:39:37.489Z,3.07
2017-08-25T17:42:05.046Z,4.00
2017-08-25T17:44:32.647Z,5.23
2017-08-25T17:47:00.129Z,3.40
2017-08-25T17:49:27.722Z,3.77
2017-08-25T17:51:55.282Z,3.77
2017-08-25T17:54:22.740Z,3.90
2017-08-25T17:56:50.319Z,3.93
2017-08-25T17:59:17.798Z,3.83
2017-08-25T18:01:45.262Z,3.67
2017-08-25T18:04:12.758Z,4.30
2017-08-25T18:06:40.325Z,3.97
2017-08-25T18:09:07.801Z,4.10
2017-08-25T18:11:35.343Z,5.13
2017-08-25T18:14:02.913Z,4.40
2017-08-25T18:16:30.453Z,4.80
2017-08-25T18:18:57.928Z,4.40
2017-08-25T18:21:25.473Z,4.40
2017-08-25T18:23:52.958Z,3.93
2017-08-25T18:26:20.471Z,4.67
2017-08-25T18:28:47.949Z,3.47
2017-08-25T18:31:15.409Z,3.83
2017-08-25T18:33:42.888Z,3.50
2017-08-25T18:36:10.407Z,3.57
2017-08-25T18:38:37.965Z,3.43
2017-08-25T18:41:05.530Z,3.20
2017-08-25T18:43:33.126Z,3.50
2017-08-25T18:46:00.591Z,3.87
2017-08-25T18:48:28.071Z,4.73
2017-08-25T18:50:55.568Z,4.60
2017-08-25T18:53:23.049Z,4.30
2017-08-25T18:55:50.569Z,5.70
2017-08-25T18:58:18.047Z,5.63
2017-08-25T19:00:45.496Z,5.67
2017-08-25T19:03:12.954Z,6.73
2017-08-25T19:05:40.427Z,5.87
2017-08-25T19:08:07.970Z,5.40
2017-08-25T19:10:35.486Z,5.80
2017-08-25T19:13:02.935Z,7.03
2017-08-25T19:15:30.425Z,6.07
2017-08-25T19:17:57.997Z,6.50
2017-08-25T19:20:25.543Z,5.50
2017-08-25T19:22:53.102Z,7.77
2017-08-25T19:25:20.936Z,6.50
2017-08-25T19:27:48.429Z,7.43
2017-08-25T19:30:15.994Z,6.27
2017-08-25T19:32:43.443Z,7.20
2017-08-25T19:35:11.009Z,6.90
2017-08-25T19:37:38.563Z,9.60
2017-08-25T19:40:06.125Z,8.00
2017-08-25T19:42:33.577Z,8.23
2017-08-25T19:45:01.066Z,8.50
2017-08-25T19:47:28.677Z,7.67
2017-08-25T19:49:56.151Z,7.43
2017-08-25T19:52:23.709Z,7.53
2017-08-25T19:54:51.268Z,7.37
2017-08-25T19:57:18.725Z,6.77
2017-08-25T19:59:46.234Z,4.73
2017-08-25T20:02:13.756Z,5.37
2017-08-25T20:04:41.293Z,6.50
2017-08-25T20:07:08.851Z,6.33
2017-08-25T20:09:36.360Z,7.00
2017-08-25T20:12:03.879Z,7.00
2017-08-25T20:14:32.424Z,7.10
2017-08-25T20:16:59.903Z,6.40
2017-08-25T20:19:27.372Z,6.50
2017-08-25T20:21:54.934Z,5.83
2017-08-25T20:24:22.417Z,5.80
2017-08-25T20:26:49.956Z,8.20
2017-08-25T20:29:17.501Z,6.67
2017-08-25T20:31:44.994Z,5.57
2017-08-25T20:34:12.483Z,4.50
2017-08-25T20:36:39.979Z,4.57
2017-08-25T20:39:07.483Z,4.90
2017-08-25T20:41:34.994Z,6.03
2017-08-25T20:44:02.465Z,6.20
2017-08-25T20:46:29.958Z,5.13
2017-08-25T20:48:57.417Z,5.63
2017-08-25T20:51:24.902Z,5.20
2017-08-25T20:53:52.374Z,5.70
2017-08-25T20:56:19.847Z,5.50
2017-08-25T20:58:47.393Z,6.23
2017-08-25T21:01:14.968Z,5.90
2017-08-25T21:03:42.420Z,6.40
2017-08-25T21:06:09.889Z,6.00
2017-08-25T21:08:37.373Z,6.23
2017-08-25T21:11:04.854Z,5.43
2017-08-25T21:13:32.330Z,6.73
2017-08-25T21:15:59.892Z,6.67
2017-08-25T21:18:27.441Z,5.80
2017-08-25T21:20:54.916Z,5.57
2017-08-25T21:23:22.387Z,5.93
2017-08-25T21:25:49.874Z,5.93
2017-08-25T21:28:17.369Z,5.70
2017-08-25T21:30:44.878Z,5.13
2017-08-25T21:33:12.397Z,5.00
2017-08-25T21:35:39.949Z,4.80
2017-08-25T21:38:07.396Z,4.80
2017-08-25T21:40:34.859Z,4.90
2017-08-25T21:43:02.337Z,6.30
2017-08-25T21:45:29.871Z,7.03
2017-08-25T21:47:57.350Z,6.90
2017-08-25T21:50:24.815Z,5.90
2017-08-25T21:52:52.306Z,6.50
2017-08-25T21:55:19.813Z,5.17
2017-08-25T21:57:47.293Z,6.00
2017-08-25T22:00:14.752Z,5.77
2017-08-25T22:02:42.282Z,6.33
2017-08-25T22:05:09.766Z,5.70
2017-08-25T22:07:37.235Z,5.40
2017-08-25T22:10:04.700Z,5.83
2017-08-25T22:12:32.208Z,6.47
2017-08-25T22:14:59.765Z,6.50
2017-08-25T22:17:27.330Z,6.40
2017-08-25T22:19:54.875Z,5.97
2017-08-25T22:22:22.348Z,6.53
2017-08-25T22:24:49.890Z,6.50
2017-08-25T22:27:17.381Z,6.50
2017-08-25T22:29:44.837Z,6.30
2017-08-25T22:32:12.318Z,6.03
2017-08-25T22:34:39.833Z,7.60
2017-08-25T22:37:07.392Z,6.73
2017-08-25T22:39:34.845Z,7.73
2017-08-25T22:42:02.333Z,7.97
2017-08-25T22:44:29.783Z,8.80
2017-08-25T22:46:57.268Z,6.87
2017-08-25T22:49:24.782Z,6.77
2017-08-25T22:51:52.535Z,8.27
2017-08-25T22:54:20.094Z,8.90
2017-08-25T22:56:47.544Z,8.53
2017-08-25T22:59:15.039Z,8.63
2017-08-25T23:01:42.517Z,6.97
2017-08-25T23:04:10.047Z,7.70
2017-08-25T23:06:38.506Z,8.10
2017-08-25T23:09:06.000Z,8.33
2017-08-25T23:11:33.485Z,8.10
2017-08-25T23:14:00.977Z,8.43
2017-08-25T23:16:28.423Z,8.67
2017-08-25T23:18:55.891Z,7.33
2017-08-25T23:21:23.431Z,6.93
2017-08-25T23:23:50.973Z,9.07
2017-08-25T23:26:18.456Z,7.90
2017-08-25T23:28:45.981Z,8.57
2017-08-25T23:31:13.465Z,8.80
2017-08-25T23:33:41.139Z,7.13
2017-08-25T23:36:08.684Z,7.80
2017-08-25T23:38:36.173Z,9.70
2017-08-25T23:41:03.659Z,9.27
2017-08-25T23:43:31.214Z,8.93
2017-08-25T23:45:58.718Z,9.70
2017-08-25T23:48:26.283Z,9.50
2017-08-25T23:50:53.756Z,10.60
2017-08-25T23:53:21.291Z,10.30
2017-08-25T23:55:48.775Z,10.57
2017-08-25T23:58:16.316Z,10.30
